Hoxeyville, Michigan
Current Conditions -  °F | °C
As of 4:35 AM on Monday 24 Nov 2014 (Local Time) from KCAD Reporting Station
Moderate Rain Moderate Rain  
Wind Chill:   Ceiling: 300
Heat Index:   Visibility: 4mi
Dew Point:   Wind: 5mph
Humidity: 99%   Direction: 220°SW
Pressure: 28.96"   Gusts: NA
Location:  44.2433°N, 85.5328°W
Report Text: KCAD 240935Z AUTO 22004KT 4SM RA OVC003 06/06 A2896 RMK AO2 T00660065
Loading
Personal Weather Stations






























Interactive Weather Map New forecast layout! Learn more

10-Day Weather Forecast

Advertisements
Track Severe Weather on mobile